sensor_id;sensor_type;location;lat;lon;timestamp;P1;durP1;ratioP1;P2;durP2;ratioP2
46753;SDS011;32500;50.620;3.400;2023-08-06T00:02:13;81.13;;;52.25;;
46753;SDS011;32500;50.620;3.400;2023-08-06T00:04:38;82.07;;;52.55;;
46753;SDS011;32500;50.620;3.400;2023-08-06T00:07:04;81.97;;;52.63;;
46753;SDS011;32500;50.620;3.400;2023-08-06T00:09:30;79.93;;;52.30;;
46753;SDS011;32500;50.620;3.400;2023-08-06T00:11:55;83.43;;;52.17;;
46753;SDS011;32500;50.620;3.400;2023-08-06T00:14:21;80.18;;;52.08;;
46753;SDS011;32500;50.620;3.400;2023-08-06T00:16:46;80.82;;;52.22;;
46753;SDS011;32500;50.620;3.400;2023-08-06T00:19:12;81.72;;;51.92;;
46753;SDS011;32500;50.620;3.400;2023-08-06T00:21:38;80.90;;;52.05;;
46753;SDS011;32500;50.620;3.400;2023-08-06T00:24:03;79.72;;;51.83;;
46753;SDS011;32500;50.620;3.400;2023-08-06T00:26:29;80.95;;;52.17;;
46753;SDS011;32500;50.620;3.400;2023-08-06T00:28:55;81.13;;;52.13;;
46753;SDS011;32500;50.620;3.400;2023-08-06T00:31:20;83.85;;;51.90;;
46753;SDS011;32500;50.620;3.400;2023-08-06T00:33:46;80.43;;;52.03;;
46753;SDS011;32500;50.620;3.400;2023-08-06T00:36:11;81.50;;;51.88;;
46753;SDS011;32500;50.620;3.400;2023-08-06T00:38:37;81.35;;;51.88;;
46753;SDS011;32500;50.620;3.400;2023-08-06T00:41:03;81.95;;;51.80;;
46753;SDS011;32500;50.620;3.400;2023-08-06T00:43:28;80.47;;;52.05;;
46753;SDS011;32500;50.620;3.400;2023-08-06T00:45:54;82.30;;;52.08;;
46753;SDS011;32500;50.620;3.400;2023-08-06T00:48:20;82.28;;;51.92;;
46753;SDS011;32500;50.620;3.400;2023-08-06T00:50:46;81.93;;;51.88;;
46753;SDS011;32500;50.620;3.400;2023-08-06T00:53:12;80.85;;;51.90;;
46753;SDS011;32500;50.620;3.400;2023-08-06T00:55:38;79.82;;;51.85;;
46753;SDS011;32500;50.620;3.400;2023-08-06T00:58:03;80.65;;;51.85;;
46753;SDS011;32500;50.620;3.400;2023-08-06T01:00:30;80.95;;;51.97;;
46753;SDS011;32500;50.620;3.400;2023-08-06T01:02:55;84.45;;;51.65;;
46753;SDS011;32500;50.620;3.400;2023-08-06T01:05:22;80.10;;;51.75;;
46753;SDS011;32500;50.620;3.400;2023-08-06T01:08:03;80.75;;;51.83;;
46753;SDS011;32500;50.620;3.400;2023-08-06T01:13:29;79.38;;;51.67;;
46753;SDS011;32500;50.620;3.400;2023-08-06T01:16:22;80.72;;;51.65;;
46753;SDS011;32500;50.620;3.400;2023-08-06T01:18:49;80.80;;;51.78;;
46753;SDS011;32500;50.620;3.400;2023-08-06T01:21:17;80.85;;;51.53;;
46753;SDS011;32500;50.620;3.400;2023-08-06T01:23:44;80.35;;;51.95;;
46753;SDS011;32500;50.620;3.400;2023-08-06T01:29:06;80.53;;;51.70;;
46753;SDS011;32500;50.620;3.400;2023-08-06T01:31:48;81.20;;;51.67;;
46753;SDS011;32500;50.620;3.400;2023-08-06T01:34:21;79.85;;;51.85;;
46753;SDS011;32500;50.620;3.400;2023-08-06T01:36:48;81.72;;;51.72;;
46753;SDS011;32500;50.620;3.400;2023-08-06T01:39:15;79.75;;;51.67;;
46753;SDS011;32500;50.620;3.400;2023-08-06T01:41:40;81.38;;;51.85;;
46753;SDS011;32500;50.620;3.400;2023-08-06T01:44:06;80.90;;;51.95;;
46753;SDS011;32500;50.620;3.400;2023-08-06T01:46:32;80.30;;;51.83;;
46753;SDS011;32500;50.620;3.400;2023-08-06T01:48:57;82.60;;;52.20;;
46753;SDS011;32500;50.620;3.400;2023-08-06T01:51:23;81.65;;;51.85;;
46753;SDS011;32500;50.620;3.400;2023-08-06T01:53:48;80.95;;;51.83;;
46753;SDS011;32500;50.620;3.400;2023-08-06T01:56:14;80.93;;;51.80;;
46753;SDS011;32500;50.620;3.400;2023-08-06T01:58:39;80.75;;;51.85;;
46753;SDS011;32500;50.620;3.400;2023-08-06T02:01:05;81.32;;;51.92;;
46753;SDS011;32500;50.620;3.400;2023-08-06T02:03:31;79.25;;;51.55;;
46753;SDS011;32500;50.620;3.400;2023-08-06T02:05:56;80.43;;;51.63;;
46753;SDS011;32500;50.620;3.400;2023-08-06T02:08:22;80.60;;;51.83;;
46753;SDS011;32500;50.620;3.400;2023-08-06T02:10:47;79.93;;;51.95;;
46753;SDS011;32500;50.620;3.400;2023-08-06T02:13:13;81.13;;;52.00;;
46753;SDS011;32500;50.620;3.400;2023-08-06T02:15:42;79.55;;;52.00;;
46753;SDS011;32500;50.620;3.400;2023-08-06T02:18:09;79.40;;;51.90;;
46753;SDS011;32500;50.620;3.400;2023-08-06T02:20:35;80.55;;;51.95;;
46753;SDS011;32500;50.620;3.400;2023-08-06T02:23:00;79.53;;;51.95;;
46753;SDS011;32500;50.620;3.400;2023-08-06T02:25:26;80.53;;;52.10;;
46753;SDS011;32500;50.620;3.400;2023-08-06T02:27:51;81.50;;;51.95;;
46753;SDS011;32500;50.620;3.400;2023-08-06T02:30:17;80.18;;;51.92;;
46753;SDS011;32500;50.620;3.400;2023-08-06T02:32:43;80.60;;;51.95;;
46753;SDS011;32500;50.620;3.400;2023-08-06T02:35:08;80.00;;;52.28;;
46753;SDS011;32500;50.620;3.400;2023-08-06T02:37:34;80.57;;;52.10;;
46753;SDS011;32500;50.620;3.400;2023-08-06T02:40:00;79.95;;;51.92;;
46753;SDS011;32500;50.620;3.400;2023-08-06T02:42:25;81.63;;;51.95;;
46753;SDS011;32500;50.620;3.400;2023-08-06T02:44:52;82.38;;;51.95;;
46753;SDS011;32500;50.620;3.400;2023-08-06T02:47:20;80.70;;;51.80;;
46753;SDS011;32500;50.620;3.400;2023-08-06T02:49:45;80.10;;;51.65;;
46753;SDS011;32500;50.620;3.400;2023-08-06T02:52:11;79.85;;;51.80;;
46753;SDS011;32500;50.620;3.400;2023-08-06T02:54:37;81.97;;;52.28;;
46753;SDS011;32500;50.620;3.400;2023-08-06T02:57:03;79.97;;;52.05;;
46753;SDS011;32500;50.620;3.400;2023-08-06T02:59:29;79.57;;;52.03;;
46753;SDS011;32500;50.620;3.400;2023-08-06T03:01:55;80.57;;;51.97;;
46753;SDS011;32500;50.620;3.400;2023-08-06T03:04:21;80.32;;;52.13;;
46753;SDS011;32500;50.620;3.400;2023-08-06T03:06:46;80.05;;;52.05;;
46753;SDS011;32500;50.620;3.400;2023-08-06T03:09:13;81.57;;;52.28;;
46753;SDS011;32500;50.620;3.400;2023-08-06T03:11:39;79.38;;;51.78;;
46753;SDS011;32500;50.620;3.400;2023-08-06T03:14:05;81.32;;;52.20;;
46753;SDS011;32500;50.620;3.400;2023-08-06T03:16:30;80.13;;;52.15;;
46753;SDS011;32500;50.620;3.400;2023-08-06T03:18:56;83.32;;;52.20;;
46753;SDS011;32500;50.620;3.400;2023-08-06T03:21:21;80.30;;;52.35;;
46753;SDS011;32500;50.620;3.400;2023-08-06T03:23:47;81.07;;;52.45;;
46753;SDS011;32500;50.620;3.400;2023-08-06T03:26:15;79.03;;;51.65;;
46753;SDS011;32500;50.620;3.400;2023-08-06T03:28:41;80.72;;;52.15;;
46753;SDS011;32500;50.620;3.400;2023-08-06T03:31:06;80.43;;;51.90;;
46753;SDS011;32500;50.620;3.400;2023-08-06T03:33:32;81.35;;;52.15;;
46753;SDS011;32500;50.620;3.400;2023-08-06T03:35:58;82.78;;;52.30;;
46753;SDS011;32500;50.620;3.400;2023-08-06T03:38:24;82.93;;;52.53;;
46753;SDS011;32500;50.620;3.400;2023-08-06T03:40:49;80.55;;;52.30;;
46753;SDS011;32500;50.620;3.400;2023-08-06T03:43:15;81.28;;;52.20;;
46753;SDS011;32500;50.620;3.400;2023-08-06T03:45:41;80.10;;;52.03;;
46753;SDS011;32500;50.620;3.400;2023-08-06T03:48:06;80.13;;;52.13;;
46753;SDS011;32500;50.620;3.400;2023-08-06T03:50:32;80.25;;;52.05;;
46753;SDS011;32500;50.620;3.400;2023-08-06T03:52:58;81.35;;;52.25;;
46753;SDS011;32500;50.620;3.400;2023-08-06T03:55:24;80.15;;;51.85;;
46753;SDS011;32500;50.620;3.400;2023-08-06T03:57:49;81.68;;;52.40;;
46753;SDS011;32500;50.620;3.400;2023-08-06T04:00:15;81.28;;;52.20;;
46753;SDS011;32500;50.620;3.400;2023-08-06T04:02:41;82.90;;;52.63;;
46753;SDS011;32500;50.620;3.400;2023-08-06T04:05:07;83.35;;;52.97;;
46753;SDS011;32500;50.620;3.400;2023-08-06T04:07:33;81.20;;;52.28;;
46753;SDS011;32500;50.620;3.400;2023-08-06T04:09:59;82.15;;;52.65;;
46753;SDS011;32500;50.620;3.400;2023-08-06T04:12:26;82.40;;;52.42;;
46753;SDS011;32500;50.620;3.400;2023-08-06T04:14:52;81.82;;;52.55;;
46753;SDS011;32500;50.620;3.400;2023-08-06T04:17:18;80.82;;;52.30;;
46753;SDS011;32500;50.620;3.400;2023-08-06T04:19:46;81.38;;;52.47;;
46753;SDS011;32500;50.620;3.400;2023-08-06T04:22:18;82.53;;;52.50;;
46753;SDS011;32500;50.620;3.400;2023-08-06T04:24:44;81.70;;;52.55;;
46753;SDS011;32500;50.620;3.400;2023-08-06T04:27:11;81.15;;;52.60;;
46753;SDS011;32500;50.620;3.400;2023-08-06T04:29:37;81.65;;;52.53;;
46753;SDS011;32500;50.620;3.400;2023-08-06T04:32:06;83.30;;;52.95;;
46753;SDS011;32500;50.620;3.400;2023-08-06T04:34:33;81.10;;;52.50;;
46753;SDS011;32500;50.620;3.400;2023-08-06T04:37:00;81.90;;;52.60;;
46753;SDS011;32500;50.620;3.400;2023-08-06T04:39:26;80.60;;;52.60;;
46753;SDS011;32500;50.620;3.400;2023-08-06T04:41:51;84.95;;;53.15;;
46753;SDS011;32500;50.620;3.400;2023-08-06T04:44:17;81.82;;;52.92;;
46753;SDS011;32500;50.620;3.400;2023-08-06T04:46:43;82.45;;;52.65;;
46753;SDS011;32500;50.620;3.400;2023-08-06T04:49:08;83.15;;;52.85;;
46753;SDS011;32500;50.620;3.400;2023-08-06T04:51:34;81.25;;;52.63;;
46753;SDS011;32500;50.620;3.400;2023-08-06T04:53:59;80.43;;;52.55;;
46753;SDS011;32500;50.620;3.400;2023-08-06T04:56:26;81.28;;;52.55;;
46753;SDS011;32500;50.620;3.400;2023-08-06T04:58:52;82.38;;;53.03;;
46753;SDS011;32500;50.620;3.400;2023-08-06T05:01:19;79.85;;;52.17;;
46753;SDS011;32500;50.620;3.400;2023-08-06T05:03:46;81.35;;;52.70;;
46753;SDS011;32500;50.620;3.400;2023-08-06T05:06:12;82.95;;;53.35;;
46753;SDS011;32500;50.620;3.400;2023-08-06T05:08:37;80.80;;;52.55;;
46753;SDS011;32500;50.620;3.400;2023-08-06T05:11:03;81.93;;;52.83;;
46753;SDS011;32500;50.620;3.400;2023-08-06T05:13:29;82.40;;;52.50;;
46753;SDS011;32500;50.620;3.400;2023-08-06T05:15:54;83.72;;;52.83;;
46753;SDS011;32500;50.620;3.400;2023-08-06T05:18:20;81.18;;;52.85;;
46753;SDS011;32500;50.620;3.400;2023-08-06T05:20:46;81.25;;;53.00;;
46753;SDS011;32500;50.620;3.400;2023-08-06T05:23:11;82.10;;;52.70;;
46753;SDS011;32500;50.620;3.400;2023-08-06T05:25:37;81.45;;;52.97;;
46753;SDS011;32500;50.620;3.400;2023-08-06T05:28:03;83.43;;;52.63;;
46753;SDS011;32500;50.620;3.400;2023-08-06T05:30:29;81.43;;;52.65;;
46753;SDS011;32500;50.620;3.400;2023-08-06T05:32:55;83.15;;;53.15;;
46753;SDS011;32500;50.620;3.400;2023-08-06T05:35:21;81.25;;;52.65;;
46753;SDS011;32500;50.620;3.400;2023-08-06T05:37:48;81.47;;;52.72;;
46753;SDS011;32500;50.620;3.400;2023-08-06T05:40:15;84.00;;;52.83;;
46753;SDS011;32500;50.620;3.400;2023-08-06T05:42:40;81.20;;;52.47;;
46753;SDS011;32500;50.620;3.400;2023-08-06T05:45:06;81.10;;;52.72;;
46753;SDS011;32500;50.620;3.400;2023-08-06T05:47:32;83.15;;;52.75;;
46753;SDS011;32500;50.620;3.400;2023-08-06T05:49:58;81.05;;;52.78;;
46753;SDS011;32500;50.620;3.400;2023-08-06T05:52:24;81.32;;;52.55;;
46753;SDS011;32500;50.620;3.400;2023-08-06T05:54:49;81.45;;;52.67;;
46753;SDS011;32500;50.620;3.400;2023-08-06T05:57:15;82.53;;;52.58;;
46753;SDS011;32500;50.620;3.400;2023-08-06T05:59:41;82.60;;;52.72;;
46753;SDS011;32500;50.620;3.400;2023-08-06T06:02:07;82.63;;;52.45;;
46753;SDS011;32500;50.620;3.400;2023-08-06T06:04:32;80.45;;;52.08;;
46753;SDS011;32500;50.620;3.400;2023-08-06T06:06:58;81.03;;;52.35;;
46753;SDS011;32500;50.620;3.400;2023-08-06T06:09:24;81.20;;;52.08;;
46753;SDS011;32500;50.620;3.400;2023-08-06T06:11:49;81.70;;;52.50;;
46753;SDS011;32500;50.620;3.400;2023-08-06T06:14:16;81.20;;;52.10;;
46753;SDS011;32500;50.620;3.400;2023-08-06T06:16:42;81.47;;;52.35;;
46753;SDS011;32500;50.620;3.400;2023-08-06T06:19:07;79.95;;;52.20;;
46753;SDS011;32500;50.620;3.400;2023-08-06T06:21:33;81.53;;;52.35;;
46753;SDS011;32500;50.620;3.400;2023-08-06T06:23:59;81.47;;;52.20;;
46753;SDS011;32500;50.620;3.400;2023-08-06T06:26:24;83.18;;;52.63;;
46753;SDS011;32500;50.620;3.400;2023-08-06T06:28:50;81.28;;;52.30;;
46753;SDS011;32500;50.620;3.400;2023-08-06T06:31:15;82.53;;;52.58;;
46753;SDS011;32500;50.620;3.400;2023-08-06T06:33:41;80.88;;;52.45;;
46753;SDS011;32500;50.620;3.400;2023-08-06T06:36:07;81.38;;;52.53;;
46753;SDS011;32500;50.620;3.400;2023-08-06T06:38:33;81.45;;;52.47;;
46753;SDS011;32500;50.620;3.400;2023-08-06T06:40:59;83.32;;;52.55;;
46753;SDS011;32500;50.620;3.400;2023-08-06T06:43:25;80.53;;;52.38;;
46753;SDS011;32500;50.620;3.400;2023-08-06T06:45:57;82.22;;;52.50;;
46753;SDS011;32500;50.620;3.400;2023-08-06T06:48:30;82.88;;;52.53;;
46753;SDS011;32500;50.620;3.400;2023-08-06T06:50:57;80.78;;;52.28;;
46753;SDS011;32500;50.620;3.400;2023-08-06T06:53:24;82.13;;;52.47;;
46753;SDS011;32500;50.620;3.400;2023-08-06T06:55:56;81.47;;;52.40;;
46753;SDS011;32500;50.620;3.400;2023-08-06T06:58:26;81.13;;;52.15;;
46753;SDS011;32500;50.620;3.400;2023-08-06T07:00:51;82.63;;;52.72;;
46753;SDS011;32500;50.620;3.400;2023-08-06T07:03:17;83.00;;;52.75;;
46753;SDS011;32500;50.620;3.400;2023-08-06T07:05:44;82.43;;;52.63;;
46753;SDS011;32500;50.620;3.400;2023-08-06T07:08:10;82.43;;;52.58;;
46753;SDS011;32500;50.620;3.400;2023-08-06T07:10:36;81.60;;;52.72;;
46753;SDS011;32500;50.620;3.400;2023-08-06T07:13:02;82.93;;;52.95;;
46753;SDS011;32500;50.620;3.400;2023-08-06T07:15:28;87.45;;;52.28;;
46753;SDS011;32500;50.620;3.400;2023-08-06T07:17:54;83.70;;;52.72;;
46753;SDS011;32500;50.620;3.400;2023-08-06T07:20:19;84.30;;;52.83;;
46753;SDS011;32500;50.620;3.400;2023-08-06T07:22:45;82.70;;;52.60;;
46753;SDS011;32500;50.620;3.400;2023-08-06T07:25:11;83.75;;;53.05;;
46753;SDS011;32500;50.620;3.400;2023-08-06T07:27:36;85.60;;;52.95;;
46753;SDS011;32500;50.620;3.400;2023-08-06T07:30:02;81.88;;;52.67;;
46753;SDS011;32500;50.620;3.400;2023-08-06T07:32:30;82.55;;;53.10;;
46753;SDS011;32500;50.620;3.400;2023-08-06T07:34:56;82.82;;;52.85;;
46753;SDS011;32500;50.620;3.400;2023-08-06T07:37:25;83.15;;;53.00;;
46753;SDS011;32500;50.620;3.400;2023-08-06T07:39:53;82.85;;;52.65;;
46753;SDS011;32500;50.620;3.400;2023-08-06T07:42:19;85.20;;;52.80;;
46753;SDS011;32500;50.620;3.400;2023-08-06T07:44:49;84.88;;;53.45;;
46753;SDS011;32500;50.620;3.400;2023-08-06T07:47:22;85.20;;;53.20;;
46753;SDS011;32500;50.620;3.400;2023-08-06T07:49:47;84.40;;;52.72;;
46753;SDS011;32500;50.620;3.400;2023-08-06T07:52:13;81.32;;;52.38;;
46753;SDS011;32500;50.620;3.400;2023-08-06T07:54:39;83.30;;;53.03;;
46753;SDS011;32500;50.620;3.400;2023-08-06T07:57:04;84.13;;;53.13;;
46753;SDS011;32500;50.620;3.400;2023-08-06T07:59:30;81.63;;;52.63;;
46753;SDS011;32500;50.620;3.400;2023-08-06T08:01:56;83.28;;;52.80;;
46753;SDS011;32500;50.620;3.400;2023-08-06T08:04:21;82.90;;;52.45;;
46753;SDS011;32500;50.620;3.400;2023-08-06T08:06:47;82.65;;;52.65;;
46753;SDS011;32500;50.620;3.400;2023-08-06T08:09:13;83.05;;;52.97;;
46753;SDS011;32500;50.620;3.400;2023-08-06T08:11:39;84.57;;;53.00;;
46753;SDS011;32500;50.620;3.400;2023-08-06T08:14:05;83.60;;;52.72;;
46753;SDS011;32500;50.620;3.400;2023-08-06T08:16:31;83.35;;;52.55;;
46753;SDS011;32500;50.620;3.400;2023-08-06T08:18:57;84.18;;;52.95;;
46753;SDS011;32500;50.620;3.400;2023-08-06T08:21:22;83.35;;;52.65;;
46753;SDS011;32500;50.620;3.400;2023-08-06T08:23:49;84.30;;;52.63;;
46753;SDS011;32500;50.620;3.400;2023-08-06T08:26:15;83.22;;;52.80;;
46753;SDS011;32500;50.620;3.400;2023-08-06T08:28:41;83.60;;;52.88;;
46753;SDS011;32500;50.620;3.400;2023-08-06T08:31:10;82.85;;;52.75;;
46753;SDS011;32500;50.620;3.400;2023-08-06T08:33:36;85.25;;;52.95;;
46753;SDS011;32500;50.620;3.400;2023-08-06T08:36:05;83.18;;;52.60;;
46753;SDS011;32500;50.620;3.400;2023-08-06T08:38:31;82.45;;;52.63;;
46753;SDS011;32500;50.620;3.400;2023-08-06T08:40:56;81.95;;;52.25;;
46753;SDS011;32500;50.620;3.400;2023-08-06T08:43:22;84.45;;;52.63;;
46753;SDS011;32500;50.620;3.400;2023-08-06T08:45:51;82.75;;;52.53;;
46753;SDS011;32500;50.620;3.400;2023-08-06T08:48:20;83.38;;;52.65;;
46753;SDS011;32500;50.620;3.400;2023-08-06T08:50:48;85.95;;;52.85;;
46753;SDS011;32500;50.620;3.400;2023-08-06T08:53:15;86.57;;;52.53;;
46753;SDS011;32500;50.620;3.400;2023-08-06T08:55:42;88.18;;;52.67;;
46753;SDS011;32500;50.620;3.400;2023-08-06T08:58:09;86.30;;;53.10;;
46753;SDS011;32500;50.620;3.400;2023-08-06T09:00:35;85.03;;;52.65;;
46753;SDS011;32500;50.620;3.400;2023-08-06T09:03:01;83.95;;;52.20;;
46753;SDS011;32500;50.620;3.400;2023-08-06T09:05:30;84.93;;;52.78;;
46753;SDS011;32500;50.620;3.400;2023-08-06T09:08:00;86.40;;;52.90;;
46753;SDS011;32500;50.620;3.400;2023-08-06T09:10:28;81.97;;;52.40;;
46753;SDS011;32500;50.620;3.400;2023-08-06T09:12:54;85.20;;;52.45;;
46753;SDS011;32500;50.620;3.400;2023-08-06T09:15:24;85.10;;;53.33;;
46753;SDS011;32500;50.620;3.400;2023-08-06T09:17:51;85.43;;;52.72;;
46753;SDS011;32500;50.620;3.400;2023-08-06T09:20:18;89.40;;;53.17;;
46753;SDS011;32500;50.620;3.400;2023-08-06T09:22:43;83.63;;;52.38;;
46753;SDS011;32500;50.620;3.400;2023-08-06T09:25:10;83.60;;;52.97;;
46753;SDS011;32500;50.620;3.400;2023-08-06T09:27:39;83.35;;;52.83;;
46753;SDS011;32500;50.620;3.400;2023-08-06T09:30:08;82.10;;;52.38;;
46753;SDS011;32500;50.620;3.400;2023-08-06T09:32:45;84.82;;;53.03;;
46753;SDS011;32500;50.620;3.400;2023-08-06T09:35:15;84.00;;;52.60;;
46753;SDS011;32500;50.620;3.400;2023-08-06T09:37:42;83.38;;;52.78;;
46753;SDS011;32500;50.620;3.400;2023-08-06T09:42:53;85.43;;;52.60;;
46753;SDS011;32500;50.620;3.400;2023-08-06T09:45:18;84.20;;;53.10;;
46753;SDS011;32500;50.620;3.400;2023-08-06T09:47:44;85.53;;;52.88;;
46753;SDS011;32500;50.620;3.400;2023-08-06T09:50:19;88.25;;;53.25;;
46753;SDS011;32500;50.620;3.400;2023-08-06T09:52:48;85.97;;;52.97;;
46753;SDS011;32500;50.620;3.400;2023-08-06T09:55:16;85.35;;;52.55;;
46753;SDS011;32500;50.620;3.400;2023-08-06T09:57:44;85.13;;;53.08;;
46753;SDS011;32500;50.620;3.400;2023-08-06T10:00:11;84.32;;;52.83;;
46753;SDS011;32500;50.620;3.400;2023-08-06T10:02:38;83.80;;;53.22;;
46753;SDS011;32500;50.620;3.400;2023-08-06T10:05:05;84.07;;;52.78;;
46753;SDS011;32500;50.620;3.400;2023-08-06T10:07:34;84.60;;;52.92;;
46753;SDS011;32500;50.620;3.400;2023-08-06T10:10:00;83.75;;;52.58;;
46753;SDS011;32500;50.620;3.400;2023-08-06T10:12:28;83.78;;;52.97;;
46753;SDS011;32500;50.620;3.400;2023-08-06T10:14:58;85.13;;;53.13;;
46753;SDS011;32500;50.620;3.400;2023-08-06T10:17:26;86.05;;;53.03;;
46753;SDS011;32500;50.620;3.400;2023-08-06T10:19:53;88.20;;;53.22;;
46753;SDS011;32500;50.620;3.400;2023-08-06T10:22:20;85.47;;;53.08;;
46753;SDS011;32500;50.620;3.400;2023-08-06T10:27:19;86.70;;;53.05;;
46753;SDS011;32500;50.620;3.400;2023-08-06T10:29:55;85.85;;;52.92;;
46753;SDS011;32500;50.620;3.400;2023-08-06T10:32:20;86.10;;;53.58;;
46753;SDS011;32500;50.620;3.400;2023-08-06T10:37:22;88.10;;;53.00;;
46753;SDS011;32500;50.620;3.400;2023-08-06T10:39:51;83.95;;;53.25;;
46753;SDS011;32500;50.620;3.400;2023-08-06T10:42:21;84.97;;;53.22;;
46753;SDS011;32500;50.620;3.400;2023-08-06T10:47:42;85.20;;;53.47;;
46753;SDS011;32500;50.620;3.400;2023-08-06T10:50:11;86.60;;;53.75;;
46753;SDS011;32500;50.620;3.400;2023-08-06T10:52:39;85.13;;;53.60;;
46753;SDS011;32500;50.620;3.400;2023-08-06T10:55:05;85.25;;;53.33;;
46753;SDS011;32500;50.620;3.400;2023-08-06T10:57:31;86.88;;;53.15;;
46753;SDS011;32500;50.620;3.400;2023-08-06T10:59:56;87.70;;;53.63;;
46753;SDS011;32500;50.620;3.400;2023-08-06T11:02:22;85.45;;;53.45;;
46753;SDS011;32500;50.620;3.400;2023-08-06T11:04:48;84.80;;;53.25;;
46753;SDS011;32500;50.620;3.400;2023-08-06T11:07:14;85.68;;;53.65;;
46753;SDS011;32500;50.620;3.400;2023-08-06T11:09:39;89.93;;;53.92;;
46753;SDS011;32500;50.620;3.400;2023-08-06T11:12:11;90.80;;;53.53;;
46753;SDS011;32500;50.620;3.400;2023-08-06T11:14:43;84.57;;;53.35;;
46753;SDS011;32500;50.620;3.400;2023-08-06T11:17:15;87.38;;;53.83;;
46753;SDS011;32500;50.620;3.400;2023-08-06T11:19:41;86.72;;;53.65;;
46753;SDS011;32500;50.620;3.400;2023-08-06T11:22:06;86.80;;;53.72;;
46753;SDS011;32500;50.620;3.400;2023-08-06T11:24:32;87.10;;;53.47;;
46753;SDS011;32500;50.620;3.400;2023-08-06T11:26:58;87.47;;;53.72;;
46753;SDS011;32500;50.620;3.400;2023-08-06T11:29:23;86.60;;;53.55;;
46753;SDS011;32500;50.620;3.400;2023-08-06T11:31:49;85.38;;;53.45;;
46753;SDS011;32500;50.620;3.400;2023-08-06T11:34:15;88.35;;;53.63;;
46753;SDS011;32500;50.620;3.400;2023-08-06T11:36:41;88.97;;;53.35;;
46753;SDS011;32500;50.620;3.400;2023-08-06T11:39:07;91.38;;;53.83;;
46753;SDS011;32500;50.620;3.400;2023-08-06T11:41:35;92.10;;;53.80;;
46753;SDS011;32500;50.620;3.400;2023-08-06T11:44:03;91.38;;;54.28;;
46753;SDS011;32500;50.620;3.400;2023-08-06T11:46:29;86.95;;;53.75;;
46753;SDS011;32500;50.620;3.400;2023-08-06T11:49:14;91.03;;;54.50;;
46753;SDS011;32500;50.620;3.400;2023-08-06T11:51:39;90.45;;;53.92;;
46753;SDS011;32500;50.620;3.400;2023-08-06T11:54:05;92.07;;;54.20;;
46753;SDS011;32500;50.620;3.400;2023-08-06T11:56:32;87.78;;;53.55;;
46753;SDS011;32500;50.620;3.400;2023-08-06T11:59:00;88.50;;;53.97;;
46753;SDS011;32500;50.620;3.400;2023-08-06T12:01:26;87.95;;;53.80;;
46753;SDS011;32500;50.620;3.400;2023-08-06T12:03:52;90.47;;;53.97;;
46753;SDS011;32500;50.620;3.400;2023-08-06T12:06:26;87.00;;;53.55;;
46753;SDS011;32500;50.620;3.400;2023-08-06T12:08:52;88.82;;;53.40;;
46753;SDS011;32500;50.620;3.400;2023-08-06T12:11:20;88.45;;;53.83;;
46753;SDS011;32500;50.620;3.400;2023-08-06T12:13:50;90.43;;;53.78;;
46753;SDS011;32500;50.620;3.400;2023-08-06T12:16:16;90.47;;;53.97;;
46753;SDS011;32500;50.620;3.400;2023-08-06T12:18:43;90.40;;;53.33;;
46753;SDS011;32500;50.620;3.400;2023-08-06T12:21:09;89.03;;;53.63;;
46753;SDS011;32500;50.620;3.400;2023-08-06T12:23:35;88.03;;;53.40;;
46753;SDS011;32500;50.620;3.400;2023-08-06T12:26:01;89.70;;;53.83;;
46753;SDS011;32500;50.620;3.400;2023-08-06T12:28:26;86.53;;;54.08;;
46753;SDS011;32500;50.620;3.400;2023-08-06T12:30:52;93.95;;;53.85;;
46753;SDS011;32500;50.620;3.400;2023-08-06T12:33:20;90.95;;;53.55;;
46753;SDS011;32500;50.620;3.400;2023-08-06T12:35:45;89.55;;;53.58;;
46753;SDS011;32500;50.620;3.400;2023-08-06T12:38:11;88.45;;;53.53;;
46753;SDS011;32500;50.620;3.400;2023-08-06T12:40:38;87.68;;;53.53;;
46753;SDS011;32500;50.620;3.400;2023-08-06T12:43:04;90.95;;;53.38;;
46753;SDS011;32500;50.620;3.400;2023-08-06T12:45:29;85.28;;;53.15;;
46753;SDS011;32500;50.620;3.400;2023-08-06T12:47:55;86.78;;;53.13;;
46753;SDS011;32500;50.620;3.400;2023-08-06T12:50:21;88.22;;;53.72;;
46753;SDS011;32500;50.620;3.400;2023-08-06T12:52:47;84.50;;;53.08;;
46753;SDS011;32500;50.620;3.400;2023-08-06T12:55:12;83.68;;;53.25;;
46753;SDS011;32500;50.620;3.400;2023-08-06T12:57:38;85.25;;;53.25;;
46753;SDS011;32500;50.620;3.400;2023-08-06T13:00:04;86.03;;;53.05;;
46753;SDS011;32500;50.620;3.400;2023-08-06T13:02:30;83.80;;;52.60;;
46753;SDS011;32500;50.620;3.400;2023-08-06T13:04:56;83.68;;;53.08;;
46753;SDS011;32500;50.620;3.400;2023-08-06T13:07:21;91.25;;;53.35;;
46753;SDS011;32500;50.620;3.400;2023-08-06T13:09:47;87.57;;;53.22;;
46753;SDS011;32500;50.620;3.400;2023-08-06T13:12:12;83.60;;;52.65;;
46753;SDS011;32500;50.620;3.400;2023-08-06T13:14:38;86.15;;;53.10;;
46753;SDS011;32500;50.620;3.400;2023-08-06T13:17:04;85.38;;;52.85;;
46753;SDS011;32500;50.620;3.400;2023-08-06T13:19:31;84.70;;;53.15;;
46753;SDS011;32500;50.620;3.400;2023-08-06T13:21:58;86.78;;;52.80;;
46753;SDS011;32500;50.620;3.400;2023-08-06T13:24:27;84.25;;;52.42;;
46753;SDS011;32500;50.620;3.400;2023-08-06T13:26:52;84.82;;;52.83;;
46753;SDS011;32500;50.620;3.400;2023-08-06T13:29:18;86.07;;;52.55;;
46753;SDS011;32500;50.620;3.400;2023-08-06T13:31:44;83.95;;;53.08;;
46753;SDS011;32500;50.620;3.400;2023-08-06T13:34:09;84.32;;;52.90;;
46753;SDS011;32500;50.620;3.400;2023-08-06T13:36:35;83.43;;;52.78;;
46753;SDS011;32500;50.620;3.400;2023-08-06T13:39:01;84.47;;;52.55;;
46753;SDS011;32500;50.620;3.400;2023-08-06T13:41:28;83.60;;;52.72;;
46753;SDS011;32500;50.620;3.400;2023-08-06T13:43:54;83.18;;;52.97;;
46753;SDS011;32500;50.620;3.400;2023-08-06T13:46:19;83.38;;;52.50;;
46753;SDS011;32500;50.620;3.400;2023-08-06T13:48:45;82.88;;;52.60;;
46753;SDS011;32500;50.620;3.400;2023-08-06T13:51:11;83.25;;;52.75;;
46753;SDS011;32500;50.620;3.400;2023-08-06T13:53:38;86.28;;;52.50;;
46753;SDS011;32500;50.620;3.400;2023-08-06T13:56:06;83.70;;;52.30;;
46753;SDS011;32500;50.620;3.400;2023-08-06T13:58:34;82.70;;;52.45;;
46753;SDS011;32500;50.620;3.400;2023-08-06T14:01:00;81.63;;;52.25;;
46753;SDS011;32500;50.620;3.400;2023-08-06T14:03:25;85.03;;;52.55;;
46753;SDS011;32500;50.620;3.400;2023-08-06T14:05:51;84.10;;;52.65;;
46753;SDS011;32500;50.620;3.400;2023-08-06T14:08:20;83.03;;;52.75;;
46753;SDS011;32500;50.620;3.400;2023-08-06T14:10:46;83.03;;;52.65;;
46753;SDS011;32500;50.620;3.400;2023-08-06T14:13:11;85.50;;;52.90;;
46753;SDS011;32500;50.620;3.400;2023-08-06T14:15:37;84.22;;;53.15;;
46753;SDS011;32500;50.620;3.400;2023-08-06T14:18:06;85.07;;;52.88;;
46753;SDS011;32500;50.620;3.400;2023-08-06T14:20:36;85.82;;;52.72;;
46753;SDS011;32500;50.620;3.400;2023-08-06T14:23:01;82.13;;;52.53;;
46753;SDS011;32500;50.620;3.400;2023-08-06T14:25:27;84.97;;;52.53;;
46753;SDS011;32500;50.620;3.400;2023-08-06T14:27:53;86.45;;;52.67;;
46753;SDS011;32500;50.620;3.400;2023-08-06T14:30:19;83.90;;;53.05;;
46753;SDS011;32500;50.620;3.400;2023-08-06T14:32:45;82.82;;;52.60;;
46753;SDS011;32500;50.620;3.400;2023-08-06T14:35:10;85.35;;;52.67;;